Campiña-No se requiere un especial cuidado respecto a la situación meteorológica.   -   No hay avisos

Informes METAR

 

LEZL - Sevilla, Spain
Distancia de la estación: ENE 8km
Actualización: 01/04/2020 14:00
Poco nuboso
Poco nuboso
 Viento de SSO
Viento: SSO 7 km/h
Temperatura: 16°C
Rocío: 7°C
Humedad: 55%
Barómetro: 1013 hPa
Nubes: Poco nuboso
Visibilidad: 10 km
Detalles de las nubes: Poco nuboso 1402 m
2020/04/01 12:00 LEZL 011200Z 21004KT 9999 FEW046 16/07 Q1013 NOSIG
LEMO - Morón, Spain
Distancia de la estación: SE 43km
Actualización: 01/04/2020 14:00
Parcialmente nuboso
Parcialmente nuboso
 Viento de OSO
Viento: OSO 11 km/h
Temperatura: 16°C
Rocío: 7°C
Humedad: 55%
Barómetro: 1013 hPa
Nubes: Parcialmente nuboso
Visibilidad: 10 km
Detalles de las nubes: Parcialmente nuboso 1250 m
2020/04/01 12:00 LEMO 011200Z 24006KT 190V300 9999 SCT041 16/07 Q1013 NOSIG
LEJR - Jeréz, Spain
Distancia de la estación: S 71km
Actualización: 01/04/2020 14:00
Parcialmente nuboso
Parcialmente nuboso
 Viento de SSO
Viento: SSO 13 km/h
Temperatura: 17°C
Rocío: 8°C
Humedad: 56%
Barómetro: 1013 hPa
Nubes: Parcialmente nuboso
Visibilidad: 10 km
Detalles de las nubes: Parcialmente nuboso 1097 m
2020/04/01 12:00 LEJR 011200Z 21007KT 110V280 9999 SCT036 17/08 Q1013
 
LERT - Rota, Spain
Distancia de la estación: SSO 89km
Actualización: 01/04/2020 14:00
Poco nuboso
Poco nuboso
 Viento de S
Viento: S 17 km/h
Temperatura: 16°C
Rocío: 10°C
Humedad: 68%
Barómetro: 1013 hPa
Nubes: Poco nuboso
Visibilidad: 10 km
Detalles de las nubes: Poco nuboso 914 m
2020/04/01 12:00 LERT 011200Z 19009KT 150V220 9999 FEW030 16/10 Q1013 NOSIG
LEMG - Málaga, Spain
Distancia de la estación: ESE 157km
Actualización: 01/04/2020 14:00
Parcialmente nuboso
Parcialmente nuboso
 Viento de S
Viento: S 17 km/h
Temperatura: 17°C
Rocío: 13°C
Humedad: 77%
Barómetro: 1012 hPa
Nubes: Parcialmente nuboso
Visibilidad: 10 km
Detalles de las nubes: Poco nuboso 610 m
Poco nuboso 1219 m
Parcialmente nuboso 1524 m
2020/04/01 12:00 LEMG 011200Z 17009KT 130V210 9999 FEW020 FEW040TCU SCT050 17/13 Q1012 NOSIG
LEBA - Córdoba, Spain
Distancia de la estación: ENE 115km
Actualización: 01/04/2020 14:00
Muy nuboso
Muy nuboso
 Viento de OSO
Viento: OSO 13 km/h
Temperatura: 17°C
Rocío: 7°C
Humedad: 52%
Barómetro: 1013 hPa
Nubes: Muy nuboso
Visibilidad: 10 km
Detalles de las nubes: Poco nuboso 914 m
Muy nuboso 1250 m
2020/04/01 12:00 LEBA 011200Z 24007KT 190V280 9999 FEW030 BKN041 17/07 Q1013
 
LEGR - Granada, Spain
Distancia de la estación: E 198km
Actualización: 01/04/2020 14:00
Lluvia débil, Muy nuboso
Lluvia débil, Muy nuboso
 Viento de O
Viento: O 17 km/h
Temperatura: 10°C
Sensación térmica: 8°C
Rocío: 7°C
Humedad: 82%
Barómetro: 1013 hPa
Resumen: Lluvia débil
Nubes: Muy nuboso
Visibilidad: 10 km
Detalles de las nubes: Poco nuboso 792 m
Muy nuboso 1494 m
2020/04/01 12:00 LEGR 011200Z AUTO 27009KT 9999 -RA FEW026 BKN049 10/07 Q1013
LEAM - Almería, Spain
Distancia de la estación: E 326km
Actualización: 01/04/2020 14:00
Despejado
Despejado
 Viento de SO
Viento: SO 35 km/h
Temperatura: 18°C
Rocío: 14°C
Humedad: 78%
Barómetro: 1011 hPa
Resumen: Despejado
Visibilidad: mayor de 10 km
2020/04/01 12:00 LEAM 011200Z AUTO 22019KT 190V250 CAVOK 18/14 Q1011
LEMD - Madrid/Barajas, Spain
Distancia de la estación: NNE 402km
Actualización: 01/04/2020 14:00
Muy nuboso
Muy nuboso
 Viento de N
Viento: N 6 km/h
Temperatura: 10°C
Rocío: 8°C
Humedad: 88%
Barómetro: 1012 hPa
Nubes: Muy nuboso
Visibilidad: 10 km
Detalles de las nubes: Poco nuboso 457 m
Parcialmente nuboso 914 m
Muy nuboso 1219 m
2020/04/01 12:00 LEMD 011200Z 36003KT 330V050 9999 FEW015 SCT030TCU BKN040 10/08 Q1012 RERA R88/29//95 NOSIG
 
LEVD - Valladolid, Spain
Distancia de la estación: N 492km
Actualización: 01/04/2020 14:00
Parcialmente nuboso
Parcialmente nuboso
 Viento de ENE
Viento: ENE 7 km/h
Temperatura: 11°C
Rocío: 4°C
Humedad: 62%
Barómetro: 1011 hPa
Nubes: Parcialmente nuboso
Visibilidad: 10 km
Detalles de las nubes: Poco nuboso 914 m
Parcialmente nuboso 1158 m
2020/04/01 12:00 LEVD 011200Z AUTO 07004KT 9999 FEW030 SCT038 11/04 Q1011
LEBL - Barcelona, Spain
Distancia de la estación: NE 816km
Actualización: 01/04/2020 14:00
Muy nuboso
Muy nuboso
 Viento de NE
Viento: NE 44 km/h
Temperatura: 12°C
Rocío: 10°C
Humedad: 88%
Barómetro: 1014 hPa
Nubes: Muy nuboso
Visibilidad: 10 km
Detalles de las nubes: Parcialmente nuboso 366 m
Muy nuboso 1372 m
2020/04/01 12:00 LEBL 011200Z 05024KT 9999 SCT012 BKN045 12/10 Q1014 BECMG RA
LEVC - Valencia, Spain
Distancia de la estación: ENE 535km
Actualización: 01/04/2020 14:00
Parcialmente nuboso
Parcialmente nuboso
 Viento de variable
Viento: variable 2 km/h
Temperatura: 20°C
Rocío: 11°C
Humedad: 56%
Barómetro: 1010 hPa
Nubes: Parcialmente nuboso
Visibilidad: 10 km
Detalles de las nubes: Parcialmente nuboso 1067 m
2020/04/01 12:00 LEVC 011200Z VRB01KT 9999 SCT035 20/11 Q1010 NOSIG